sensor_id;sensor_type;location;lat;lon;timestamp;P1;durP1;ratioP1;P2;durP2;ratioP2
64225;SDS011;50545;56.064;26.178;2022-09-30T00:01:44;6.15;;;4.18;;
64225;SDS011;50545;56.064;26.178;2022-09-30T00:04:13;9.13;;;4.03;;
64225;SDS011;50545;56.064;26.178;2022-09-30T00:06:43;7.28;;;4.53;;
64225;SDS011;50545;56.064;26.178;2022-09-30T00:09:10;6.32;;;4.25;;
64225;SDS011;50545;56.064;26.178;2022-09-30T00:11:39;6.90;;;4.60;;
64225;SDS011;50545;56.064;26.178;2022-09-30T00:14:07;6.35;;;4.47;;
64225;SDS011;50545;56.064;26.178;2022-09-30T00:16:38;5.80;;;3.92;;
64225;SDS011;50545;56.064;26.178;2022-09-30T00:19:05;7.78;;;4.40;;
64225;SDS011;50545;56.064;26.178;2022-09-30T00:21:33;7.20;;;4.68;;
64225;SDS011;50545;56.064;26.178;2022-09-30T00:24:01;6.20;;;4.22;;
64225;SDS011;50545;56.064;26.178;2022-09-30T00:26:29;7.05;;;4.68;;
64225;SDS011;50545;56.064;26.178;2022-09-30T00:28:58;5.78;;;3.95;;
64225;SDS011;50545;56.064;26.178;2022-09-30T00:31:26;7.60;;;4.15;;
64225;SDS011;50545;56.064;26.178;2022-09-30T00:33:56;7.20;;;4.50;;
64225;SDS011;50545;56.064;26.178;2022-09-30T00:36:39;7.78;;;4.72;;
64225;SDS011;50545;56.064;26.178;2022-09-30T00:39:16;7.60;;;4.55;;
64225;SDS011;50545;56.064;26.178;2022-09-30T00:41:46;8.13;;;4.75;;
64225;SDS011;50545;56.064;26.178;2022-09-30T00:55:47;6.68;;;4.82;;
64225;SDS011;50545;56.064;26.178;2022-09-30T00:58:22;7.47;;;4.68;;
64225;SDS011;50545;56.064;26.178;2022-09-30T01:00:55;7.35;;;4.78;;
64225;SDS011;50545;56.064;26.178;2022-09-30T01:03:25;6.95;;;4.60;;
64225;SDS011;50545;56.064;26.178;2022-09-30T01:05:54;8.65;;;4.65;;
64225;SDS011;50545;56.064;26.178;2022-09-30T01:08:21;6.93;;;4.75;;
64225;SDS011;50545;56.064;26.178;2022-09-30T01:10:49;8.75;;;4.97;;
64225;SDS011;50545;56.064;26.178;2022-09-30T01:13:16;7.45;;;4.90;;
64225;SDS011;50545;56.064;26.178;2022-09-30T01:18:47;7.25;;;4.97;;
64225;SDS011;50545;56.064;26.178;2022-09-30T01:24:35;7.60;;;5.10;;
64225;SDS011;50545;56.064;26.178;2022-09-30T01:32:32;7.25;;;5.07;;
64225;SDS011;50545;56.064;26.178;2022-09-30T01:35:10;7.53;;;4.75;;
64225;SDS011;50545;56.064;26.178;2022-09-30T01:40:39;8.68;;;5.50;;
64225;SDS011;50545;56.064;26.178;2022-09-30T01:43:24;7.00;;;4.60;;
64225;SDS011;50545;56.064;26.178;2022-09-30T01:51:16;8.35;;;5.45;;
64225;SDS011;50545;56.064;26.178;2022-09-30T01:56:47;7.53;;;4.78;;
64225;SDS011;50545;56.064;26.178;2022-09-30T01:59:35;7.97;;;5.00;;
64225;SDS011;50545;56.064;26.178;2022-09-30T02:02:26;7.47;;;4.75;;
64225;SDS011;50545;56.064;26.178;2022-09-30T02:05:01;6.45;;;4.05;;
64225;SDS011;50545;56.064;26.178;2022-09-30T02:07:34;7.85;;;4.80;;
64225;SDS011;50545;56.064;26.178;2022-09-30T02:12:45;7.55;;;4.82;;
64225;SDS011;50545;56.064;26.178;2022-09-30T02:15:20;7.72;;;4.72;;
64225;SDS011;50545;56.064;26.178;2022-09-30T02:17:52;6.80;;;4.55;;
64225;SDS011;50545;56.064;26.178;2022-09-30T02:20:30;7.35;;;5.03;;
64225;SDS011;50545;56.064;26.178;2022-09-30T02:25:37;7.90;;;4.88;;
64225;SDS011;50545;56.064;26.178;2022-09-30T02:28:09;7.40;;;4.65;;
64225;SDS011;50545;56.064;26.178;2022-09-30T02:30:41;7.47;;;4.68;;
64225;SDS011;50545;56.064;26.178;2022-09-30T02:33:17;8.27;;;4.88;;
64225;SDS011;50545;56.064;26.178;2022-09-30T02:35:49;8.15;;;4.60;;
64225;SDS011;50545;56.064;26.178;2022-09-30T02:38:23;7.85;;;4.63;;
64225;SDS011;50545;56.064;26.178;2022-09-30T02:41:00;6.68;;;4.38;;
64225;SDS011;50545;56.064;26.178;2022-09-30T02:43:33;7.35;;;4.53;;
64225;SDS011;50545;56.064;26.178;2022-09-30T02:54:12;8.85;;;4.70;;
64225;SDS011;50545;56.064;26.178;2022-09-30T02:57:19;6.82;;;4.63;;
64225;SDS011;50545;56.064;26.178;2022-09-30T03:00:05;7.32;;;4.80;;
64225;SDS011;50545;56.064;26.178;2022-09-30T03:02:38;7.38;;;4.25;;
64225;SDS011;50545;56.064;26.178;2022-09-30T03:05:07;6.72;;;4.47;;
64225;SDS011;50545;56.064;26.178;2022-09-30T03:07:35;7.13;;;4.80;;
64225;SDS011;50545;56.064;26.178;2022-09-30T03:10:15;7.32;;;4.35;;
64225;SDS011;50545;56.064;26.178;2022-09-30T03:22:18;8.13;;;4.53;;
64225;SDS011;50545;56.064;26.178;2022-09-30T03:27:50;7.65;;;4.43;;
64225;SDS011;50545;56.064;26.178;2022-09-30T03:30:26;6.47;;;4.00;;
64225;SDS011;50545;56.064;26.178;2022-09-30T03:33:06;6.37;;;4.40;;
64225;SDS011;50545;56.064;26.178;2022-09-30T03:42:04;7.22;;;4.45;;
64225;SDS011;50545;56.064;26.178;2022-09-30T03:44:10;7.38;;;4.90;;
64225;SDS011;50545;56.064;26.178;2022-09-30T03:46:45;6.85;;;4.38;;
64225;SDS011;50545;56.064;26.178;2022-09-30T03:49:21;7.18;;;4.07;;
64225;SDS011;50545;56.064;26.178;2022-09-30T03:51:50;7.20;;;4.43;;
64225;SDS011;50545;56.064;26.178;2022-09-30T03:54:20;9.23;;;4.72;;
64225;SDS011;50545;56.064;26.178;2022-09-30T03:56:48;6.93;;;4.63;;
64225;SDS011;50545;56.064;26.178;2022-09-30T03:59:22;7.47;;;4.82;;
64225;SDS011;50545;56.064;26.178;2022-09-30T04:01:53;6.93;;;4.50;;
64225;SDS011;50545;56.064;26.178;2022-09-30T04:04:20;7.57;;;4.38;;
64225;SDS011;50545;56.064;26.178;2022-09-30T04:06:47;8.98;;;4.72;;
64225;SDS011;50545;56.064;26.178;2022-09-30T04:09:15;8.02;;;4.80;;
64225;SDS011;50545;56.064;26.178;2022-09-30T04:11:42;6.88;;;4.72;;
64225;SDS011;50545;56.064;26.178;2022-09-30T04:14:09;6.88;;;4.40;;
64225;SDS011;50545;56.064;26.178;2022-09-30T04:16:36;8.07;;;4.75;;
64225;SDS011;50545;56.064;26.178;2022-09-30T04:19:04;6.57;;;4.10;;
64225;SDS011;50545;56.064;26.178;2022-09-30T04:21:31;8.57;;;5.07;;
64225;SDS011;50545;56.064;26.178;2022-09-30T04:23:58;8.40;;;4.85;;
64225;SDS011;50545;56.064;26.178;2022-09-30T04:26:25;7.55;;;4.55;;
64225;SDS011;50545;56.064;26.178;2022-09-30T04:28:52;8.73;;;5.10;;
64225;SDS011;50545;56.064;26.178;2022-09-30T04:31:23;7.40;;;5.03;;
64225;SDS011;50545;56.064;26.178;2022-09-30T04:33:51;8.45;;;5.00;;
64225;SDS011;50545;56.064;26.178;2022-09-30T04:36:18;8.02;;;5.22;;
64225;SDS011;50545;56.064;26.178;2022-09-30T04:38:45;6.95;;;4.72;;
64225;SDS011;50545;56.064;26.178;2022-09-30T04:41:13;8.27;;;5.13;;
64225;SDS011;50545;56.064;26.178;2022-09-30T04:46:15;7.32;;;5.10;;
64225;SDS011;50545;56.064;26.178;2022-09-30T04:48:44;8.43;;;5.05;;
64225;SDS011;50545;56.064;26.178;2022-09-30T04:51:13;9.02;;;5.60;;
64225;SDS011;50545;56.064;26.178;2022-09-30T04:53:42;9.27;;;5.55;;
64225;SDS011;50545;56.064;26.178;2022-09-30T04:56:09;7.75;;;4.95;;
64225;SDS011;50545;56.064;26.178;2022-09-30T04:58:37;6.93;;;4.57;;
64225;SDS011;50545;56.064;26.178;2022-09-30T05:01:05;7.43;;;5.05;;
64225;SDS011;50545;56.064;26.178;2022-09-30T05:03:34;9.05;;;4.55;;
64225;SDS011;50545;56.064;26.178;2022-09-30T05:06:02;9.13;;;5.00;;
64225;SDS011;50545;56.064;26.178;2022-09-30T05:08:30;7.85;;;5.38;;
64225;SDS011;50545;56.064;26.178;2022-09-30T05:10:59;6.93;;;4.32;;
64225;SDS011;50545;56.064;26.178;2022-09-30T05:13:30;9.35;;;5.20;;
64225;SDS011;50545;56.064;26.178;2022-09-30T05:16:02;8.07;;;5.10;;
64225;SDS011;50545;56.064;26.178;2022-09-30T05:18:30;7.50;;;4.72;;
64225;SDS011;50545;56.064;26.178;2022-09-30T05:20:59;7.65;;;4.60;;
64225;SDS011;50545;56.064;26.178;2022-09-30T05:23:27;9.25;;;4.80;;
64225;SDS011;50545;56.064;26.178;2022-09-30T05:25:56;7.63;;;4.78;;
64225;SDS011;50545;56.064;26.178;2022-09-30T05:28:23;8.57;;;5.10;;
64225;SDS011;50545;56.064;26.178;2022-09-30T05:30:58;7.50;;;4.68;;
64225;SDS011;50545;56.064;26.178;2022-09-30T05:33:27;7.68;;;4.78;;
64225;SDS011;50545;56.064;26.178;2022-09-30T05:35:59;5.90;;;3.83;;
64225;SDS011;50545;56.064;26.178;2022-09-30T05:38:27;8.88;;;4.90;;
64225;SDS011;50545;56.064;26.178;2022-09-30T05:40:55;10.30;;;5.32;;
64225;SDS011;50545;56.064;26.178;2022-09-30T05:43:22;7.25;;;4.78;;
64225;SDS011;50545;56.064;26.178;2022-09-30T05:45:50;8.50;;;5.25;;
64225;SDS011;50545;56.064;26.178;2022-09-30T05:48:20;8.50;;;5.03;;
64225;SDS011;50545;56.064;26.178;2022-09-30T05:50:52;7.75;;;4.75;;
64225;SDS011;50545;56.064;26.178;2022-09-30T05:53:23;7.88;;;4.78;;
64225;SDS011;50545;56.064;26.178;2022-09-30T05:55:50;8.05;;;4.50;;
64225;SDS011;50545;56.064;26.178;2022-09-30T05:58:18;7.20;;;4.38;;
64225;SDS011;50545;56.064;26.178;2022-09-30T06:00:47;7.97;;;5.15;;
64225;SDS011;50545;56.064;26.178;2022-09-30T06:03:15;8.07;;;4.90;;
64225;SDS011;50545;56.064;26.178;2022-09-30T06:05:43;8.00;;;4.93;;
64225;SDS011;50545;56.064;26.178;2022-09-30T06:08:11;8.65;;;4.70;;
64225;SDS011;50545;56.064;26.178;2022-09-30T06:10:40;7.05;;;4.50;;
64225;SDS011;50545;56.064;26.178;2022-09-30T06:13:09;7.82;;;4.50;;
64225;SDS011;50545;56.064;26.178;2022-09-30T06:15:36;7.60;;;4.82;;
64225;SDS011;50545;56.064;26.178;2022-09-30T06:18:05;7.40;;;4.65;;
64225;SDS011;50545;56.064;26.178;2022-09-30T06:20:33;10.32;;;5.10;;
64225;SDS011;50545;56.064;26.178;2022-09-30T06:23:00;7.40;;;4.20;;
64225;SDS011;50545;56.064;26.178;2022-09-30T06:25:28;6.47;;;4.07;;
64225;SDS011;50545;56.064;26.178;2022-09-30T06:27:56;6.78;;;4.43;;
64225;SDS011;50545;56.064;26.178;2022-09-30T06:30:24;6.72;;;3.90;;
64225;SDS011;50545;56.064;26.178;2022-09-30T06:32:51;7.55;;;4.30;;
64225;SDS011;50545;56.064;26.178;2022-09-30T06:35:21;6.50;;;4.07;;
64225;SDS011;50545;56.064;26.178;2022-09-30T06:37:50;6.50;;;4.00;;
64225;SDS011;50545;56.064;26.178;2022-09-30T06:40:18;6.22;;;3.75;;
64225;SDS011;50545;56.064;26.178;2022-09-30T06:42:46;6.85;;;3.72;;
64225;SDS011;50545;56.064;26.178;2022-09-30T06:45:15;6.15;;;3.80;;
64225;SDS011;50545;56.064;26.178;2022-09-30T06:47:58;6.65;;;3.75;;
64225;SDS011;50545;56.064;26.178;2022-09-30T06:50:27;6.80;;;3.95;;
64225;SDS011;50545;56.064;26.178;2022-09-30T06:52:58;6.95;;;4.40;;
64225;SDS011;50545;56.064;26.178;2022-09-30T06:55:32;6.60;;;3.88;;
64225;SDS011;50545;56.064;26.178;2022-09-30T06:58:08;7.57;;;4.40;;
64225;SDS011;50545;56.064;26.178;2022-09-30T07:00:40;7.85;;;4.47;;
64225;SDS011;50545;56.064;26.178;2022-09-30T07:03:07;6.38;;;3.97;;
64225;SDS011;50545;56.064;26.178;2022-09-30T07:05:53;7.00;;;4.15;;
64225;SDS011;50545;56.064;26.178;2022-09-30T07:08:22;7.28;;;4.38;;
64225;SDS011;50545;56.064;26.178;2022-09-30T07:11:00;8.00;;;4.88;;
64225;SDS011;50545;56.064;26.178;2022-09-30T07:13:29;7.88;;;4.20;;
64225;SDS011;50545;56.064;26.178;2022-09-30T07:15:58;8.98;;;5.03;;
64225;SDS011;50545;56.064;26.178;2022-09-30T07:18:25;7.70;;;4.40;;
64225;SDS011;50545;56.064;26.178;2022-09-30T07:20:54;7.43;;;4.28;;
64225;SDS011;50545;56.064;26.178;2022-09-30T07:23:22;6.90;;;4.45;;
64225;SDS011;50545;56.064;26.178;2022-09-30T07:25:53;7.55;;;4.10;;
64225;SDS011;50545;56.064;26.178;2022-09-30T07:28:27;6.85;;;4.25;;
64225;SDS011;50545;56.064;26.178;2022-09-30T07:30:58;7.28;;;4.55;;
64225;SDS011;50545;56.064;26.178;2022-09-30T07:33:46;6.22;;;3.70;;
64225;SDS011;50545;56.064;26.178;2022-09-30T07:36:17;6.53;;;3.95;;
64225;SDS011;50545;56.064;26.178;2022-09-30T07:38:54;8.55;;;4.60;;
64225;SDS011;50545;56.064;26.178;2022-09-30T07:41:23;6.63;;;3.97;;
64225;SDS011;50545;56.064;26.178;2022-09-30T07:43:54;6.90;;;4.22;;
64225;SDS011;50545;56.064;26.178;2022-09-30T07:46:28;4.93;;;3.22;;
64225;SDS011;50545;56.064;26.178;2022-09-30T07:48:57;6.07;;;3.90;;
64225;SDS011;50545;56.064;26.178;2022-09-30T07:51:32;5.15;;;3.60;;
64225;SDS011;50545;56.064;26.178;2022-09-30T07:54:08;6.72;;;3.72;;
64225;SDS011;50545;56.064;26.178;2022-09-30T07:56:39;6.95;;;3.80;;
64225;SDS011;50545;56.064;26.178;2022-09-30T07:59:29;5.63;;;3.25;;
64225;SDS011;50545;56.064;26.178;2022-09-30T08:01:58;7.30;;;4.30;;
64225;SDS011;50545;56.064;26.178;2022-09-30T08:04:26;6.45;;;3.60;;
64225;SDS011;50545;56.064;26.178;2022-09-30T08:06:54;8.27;;;4.22;;
64225;SDS011;50545;56.064;26.178;2022-09-30T08:09:23;7.13;;;4.38;;
64225;SDS011;50545;56.064;26.178;2022-09-30T08:11:52;6.63;;;3.90;;
64225;SDS011;50545;56.064;26.178;2022-09-30T08:14:21;6.70;;;3.83;;
64225;SDS011;50545;56.064;26.178;2022-09-30T08:19:19;6.03;;;3.50;;
64225;SDS011;50545;56.064;26.178;2022-09-30T08:21:49;6.60;;;3.45;;
64225;SDS011;50545;56.064;26.178;2022-09-30T08:24:18;6.37;;;3.43;;
64225;SDS011;50545;56.064;26.178;2022-09-30T08:26:46;6.78;;;3.60;;
64225;SDS011;50545;56.064;26.178;2022-09-30T08:29:13;7.63;;;3.72;;
64225;SDS011;50545;56.064;26.178;2022-09-30T08:31:46;6.03;;;3.20;;
64225;SDS011;50545;56.064;26.178;2022-09-30T08:34:13;5.88;;;3.50;;
64225;SDS011;50545;56.064;26.178;2022-09-30T08:36:40;6.45;;;3.85;;
64225;SDS011;50545;56.064;26.178;2022-09-30T08:39:08;6.35;;;3.65;;
64225;SDS011;50545;56.064;26.178;2022-09-30T08:41:54;6.03;;;3.42;;
64225;SDS011;50545;56.064;26.178;2022-09-30T08:44:50;5.05;;;2.88;;
64225;SDS011;50545;56.064;26.178;2022-09-30T08:52:41;5.18;;;2.90;;
64225;SDS011;50545;56.064;26.178;2022-09-30T08:55:34;4.57;;;2.60;;
64225;SDS011;50545;56.064;26.178;2022-09-30T08:58:10;4.85;;;3.08;;
64225;SDS011;50545;56.064;26.178;2022-09-30T09:00:53;6.38;;;3.20;;
64225;SDS011;50545;56.064;26.178;2022-09-30T09:03:41;3.95;;;2.65;;
64225;SDS011;50545;56.064;26.178;2022-09-30T09:06:16;4.38;;;2.70;;
64225;SDS011;50545;56.064;26.178;2022-09-30T09:20:11;4.80;;;2.80;;
64225;SDS011;50545;56.064;26.178;2022-09-30T09:22:41;4.85;;;2.85;;
64225;SDS011;50545;56.064;26.178;2022-09-30T09:25:15;4.50;;;2.90;;
64225;SDS011;50545;56.064;26.178;2022-09-30T09:27:57;5.00;;;3.08;;
64225;SDS011;50545;56.064;26.178;2022-09-30T09:30:50;5.43;;;3.03;;
64225;SDS011;50545;56.064;26.178;2022-09-30T09:33:22;5.88;;;3.20;;
64225;SDS011;50545;56.064;26.178;2022-09-30T09:41:45;4.20;;;2.80;;
64225;SDS011;50545;56.064;26.178;2022-09-30T09:44:29;4.40;;;2.88;;
64225;SDS011;50545;56.064;26.178;2022-09-30T09:47:08;6.22;;;3.47;;
64225;SDS011;50545;56.064;26.178;2022-09-30T09:50:00;6.00;;;3.40;;
64225;SDS011;50545;56.064;26.178;2022-09-30T09:55:21;4.95;;;3.10;;
64225;SDS011;50545;56.064;26.178;2022-09-30T09:58:08;5.25;;;3.10;;
64225;SDS011;50545;56.064;26.178;2022-09-30T10:00:39;5.93;;;3.40;;
64225;SDS011;50545;56.064;26.178;2022-09-30T10:03:17;6.05;;;3.40;;
64225;SDS011;50545;56.064;26.178;2022-09-30T10:06:09;4.20;;;2.70;;
64225;SDS011;50545;56.064;26.178;2022-09-30T10:08:39;5.82;;;3.50;;
64225;SDS011;50545;56.064;26.178;2022-09-30T10:13:48;4.80;;;3.15;;
64225;SDS011;50545;56.064;26.178;2022-09-30T10:16:32;4.85;;;3.03;;
64225;SDS011;50545;56.064;26.178;2022-09-30T10:19:04;8.68;;;3.03;;
64225;SDS011;50545;56.064;26.178;2022-09-30T10:21:48;5.00;;;2.88;;
64225;SDS011;50545;56.064;26.178;2022-09-30T10:26:54;8.07;;;3.30;;
64225;SDS011;50545;56.064;26.178;2022-09-30T10:29:31;4.80;;;2.78;;
64225;SDS011;50545;56.064;26.178;2022-09-30T10:32:05;3.47;;;2.20;;
64225;SDS011;50545;56.064;26.178;2022-09-30T10:34:43;5.53;;;3.15;;
64225;SDS011;50545;56.064;26.178;2022-09-30T10:37:14;5.72;;;2.92;;
64225;SDS011;50545;56.064;26.178;2022-09-30T10:39:49;5.07;;;3.20;;
64225;SDS011;50545;56.064;26.178;2022-09-30T10:42:28;4.75;;;3.00;;
64225;SDS011;50545;56.064;26.178;2022-09-30T10:44:59;5.78;;;3.25;;
64225;SDS011;50545;56.064;26.178;2022-09-30T10:47:31;5.25;;;3.13;;
64225;SDS011;50545;56.064;26.178;2022-09-30T10:50:06;5.45;;;3.05;;
64225;SDS011;50545;56.064;26.178;2022-09-30T10:52:39;5.10;;;3.15;;
64225;SDS011;50545;56.064;26.178;2022-09-30T10:55:32;5.70;;;3.58;;
64225;SDS011;50545;56.064;26.178;2022-09-30T11:00:51;5.25;;;3.10;;
64225;SDS011;50545;56.064;26.178;2022-09-30T11:03:33;4.53;;;3.13;;
64225;SDS011;50545;56.064;26.178;2022-09-30T11:06:05;4.60;;;2.70;;
64225;SDS011;50545;56.064;26.178;2022-09-30T11:11:38;5.70;;;3.05;;
64225;SDS011;50545;56.064;26.178;2022-09-30T11:17:27;6.25;;;3.17;;
64225;SDS011;50545;56.064;26.178;2022-09-30T11:20:05;3.92;;;2.70;;
64225;SDS011;50545;56.064;26.178;2022-09-30T11:22:45;4.90;;;2.70;;
64225;SDS011;50545;56.064;26.178;2022-09-30T11:25:13;4.25;;;2.95;;
64225;SDS011;50545;56.064;26.178;2022-09-30T11:30:59;3.53;;;2.35;;
64225;SDS011;50545;56.064;26.178;2022-09-30T11:41:55;4.70;;;2.28;;
64225;SDS011;50545;56.064;26.178;2022-09-30T11:44:42;4.57;;;2.55;;
64225;SDS011;50545;56.064;26.178;2022-09-30T11:50:03;5.10;;;2.90;;
64225;SDS011;50545;56.064;26.178;2022-09-30T11:58:44;4.47;;;2.72;;
64225;SDS011;50545;56.064;26.178;2022-09-30T12:04:06;4.57;;;2.90;;
64225;SDS011;50545;56.064;26.178;2022-09-30T12:07:34;3.67;;;2.50;;
64225;SDS011;50545;56.064;26.178;2022-09-30T12:10:28;4.07;;;2.50;;
64225;SDS011;50545;56.064;26.178;2022-09-30T12:13:00;4.38;;;2.80;;
64225;SDS011;50545;56.064;26.178;2022-09-30T12:15:32;4.68;;;2.80;;
64225;SDS011;50545;56.064;26.178;2022-09-30T12:18:02;5.90;;;2.90;;
64225;SDS011;50545;56.064;26.178;2022-09-30T12:23:15;5.20;;;2.70;;
64225;SDS011;50545;56.064;26.178;2022-09-30T12:25:57;3.83;;;2.63;;
64225;SDS011;50545;56.064;26.178;2022-09-30T12:48:32;3.65;;;2.40;;
64225;SDS011;50545;56.064;26.178;2022-09-30T12:51:04;3.65;;;2.38;;
64225;SDS011;50545;56.064;26.178;2022-09-30T12:53:34;2.90;;;2.13;;
64225;SDS011;50545;56.064;26.178;2022-09-30T12:58:34;3.10;;;2.15;;
64225;SDS011;50545;56.064;26.178;2022-09-30T13:01:10;2.75;;;2.13;;
64225;SDS011;50545;56.064;26.178;2022-09-30T13:11:46;3.38;;;2.17;;
64225;SDS011;50545;56.064;26.178;2022-09-30T13:14:41;3.58;;;2.08;;
64225;SDS011;50545;56.064;26.178;2022-09-30T13:19:42;4.43;;;2.20;;
64225;SDS011;50545;56.064;26.178;2022-09-30T13:27:45;3.10;;;2.30;;
64225;SDS011;50545;56.064;26.178;2022-09-30T13:40:41;3.67;;;2.20;;
64225;SDS011;50545;56.064;26.178;2022-09-30T13:46:35;3.78;;;2.30;;
64225;SDS011;50545;56.064;26.178;2022-09-30T13:52:13;3.20;;;2.03;;
64225;SDS011;50545;56.064;26.178;2022-09-30T13:54:51;4.10;;;2.42;;
64225;SDS011;50545;56.064;26.178;2022-09-30T13:57:22;3.70;;;2.38;;
64225;SDS011;50545;56.064;26.178;2022-09-30T14:00:02;3.13;;;2.10;;
64225;SDS011;50545;56.064;26.178;2022-09-30T14:02:41;3.75;;;2.40;;
64225;SDS011;50545;56.064;26.178;2022-09-30T14:10:59;3.15;;;2.00;;
64225;SDS011;50545;56.064;26.178;2022-09-30T14:21:57;2.85;;;1.92;;
64225;SDS011;50545;56.064;26.178;2022-09-30T14:24:29;2.15;;;1.85;;
64225;SDS011;50545;56.064;26.178;2022-09-30T14:27:21;3.00;;;2.00;;
64225;SDS011;50545;56.064;26.178;2022-09-30T14:35:23;2.97;;;2.00;;
64225;SDS011;50545;56.064;26.178;2022-09-30T14:38:08;3.22;;;2.20;;
64225;SDS011;50545;56.064;26.178;2022-09-30T14:40:51;3.27;;;2.40;;
64225;SDS011;50545;56.064;26.178;2022-09-30T14:43:23;2.90;;;2.03;;
64225;SDS011;50545;56.064;26.178;2022-09-30T14:46:13;2.70;;;2.03;;
64225;SDS011;50545;56.064;26.178;2022-09-30T14:48:57;4.43;;;2.50;;
64225;SDS011;50545;56.064;26.178;2022-09-30T14:51:33;3.38;;;2.22;;
64225;SDS011;50545;56.064;26.178;2022-09-30T14:54:28;3.08;;;2.25;;
64225;SDS011;50545;56.064;26.178;2022-09-30T14:56:58;3.90;;;2.05;;
64225;SDS011;50545;56.064;26.178;2022-09-30T14:59:32;3.47;;;2.22;;
64225;SDS011;50545;56.064;26.178;2022-09-30T15:02:09;3.75;;;2.45;;
64225;SDS011;50545;56.064;26.178;2022-09-30T15:04:43;3.55;;;2.35;;
64225;SDS011;50545;56.064;26.178;2022-09-30T15:07:17;3.53;;;2.15;;
64225;SDS011;50545;56.064;26.178;2022-09-30T15:09:45;2.90;;;2.17;;
64225;SDS011;50545;56.064;26.178;2022-09-30T15:12:15;2.92;;;1.95;;
64225;SDS011;50545;56.064;26.178;2022-09-30T15:14:48;4.85;;;2.17;;
64225;SDS011;50545;56.064;26.178;2022-09-30T15:17:17;4.25;;;2.30;;
64225;SDS011;50545;56.064;26.178;2022-09-30T15:19:49;3.50;;;2.30;;
64225;SDS011;50545;56.064;26.178;2022-09-30T15:22:16;3.50;;;2.30;;
64225;SDS011;50545;56.064;26.178;2022-09-30T15:24:45;3.30;;;2.13;;
64225;SDS011;50545;56.064;26.178;2022-09-30T15:27:15;3.13;;;2.17;;
64225;SDS011;50545;56.064;26.178;2022-09-30T15:30:02;3.83;;;2.58;;
64225;SDS011;50545;56.064;26.178;2022-09-30T15:32:48;3.40;;;2.30;;
64225;SDS011;50545;56.064;26.178;2022-09-30T15:35:23;3.42;;;2.20;;
64225;SDS011;50545;56.064;26.178;2022-09-30T15:37:50;3.05;;;2.28;;
64225;SDS011;50545;56.064;26.178;2022-09-30T15:40:19;2.90;;;2.20;;
64225;SDS011;50545;56.064;26.178;2022-09-30T15:43:08;3.08;;;2.05;;
64225;SDS011;50545;56.064;26.178;2022-09-30T15:45:37;3.13;;;2.30;;
64225;SDS011;50545;56.064;26.178;2022-09-30T15:48:31;3.70;;;2.22;;
64225;SDS011;50545;56.064;26.178;2022-09-30T15:51:01;3.00;;;2.10;;
64225;SDS011;50545;56.064;26.178;2022-09-30T15:54:50;3.25;;;2.05;;
64225;SDS011;50545;56.064;26.178;2022-09-30T15:56:59;3.70;;;2.20;;
64225;SDS011;50545;56.064;26.178;2022-09-30T16:02:24;3.60;;;2.20;;
64225;SDS011;50545;56.064;26.178;2022-09-30T16:04:52;4.07;;;2.35;;
64225;SDS011;50545;56.064;26.178;2022-09-30T16:07:20;3.92;;;2.40;;
64225;SDS011;50545;56.064;26.178;2022-09-30T16:09:52;3.88;;;2.20;;
64225;SDS011;50545;56.064;26.178;2022-09-30T16:12:22;3.95;;;2.15;;
64225;SDS011;50545;56.064;26.178;2022-09-30T16:15:05;3.75;;;2.28;;
64225;SDS011;50545;56.064;26.178;2022-09-30T16:17:43;4.10;;;2.30;;
64225;SDS011;50545;56.064;26.178;2022-09-30T16:27:59;4.85;;;2.20;;
64225;SDS011;50545;56.064;26.178;2022-09-30T16:30:27;4.10;;;2.50;;
64225;SDS011;50545;56.064;26.178;2022-09-30T16:32:57;4.38;;;2.47;;
64225;SDS011;50545;56.064;26.178;2022-09-30T16:35:29;5.30;;;2.80;;
64225;SDS011;50545;56.064;26.178;2022-09-30T16:38:00;4.45;;;2.65;;
64225;SDS011;50545;56.064;26.178;2022-09-30T16:40:30;5.63;;;3.00;;
64225;SDS011;50545;56.064;26.178;2022-09-30T16:42:59;4.18;;;2.80;;
64225;SDS011;50545;56.064;26.178;2022-09-30T16:45:33;5.55;;;2.70;;
64225;SDS011;50545;56.064;26.178;2022-09-30T16:48:00;8.00;;;2.80;;
64225;SDS011;50545;56.064;26.178;2022-09-30T16:53:31;3.85;;;2.30;;
64225;SDS011;50545;56.064;26.178;2022-09-30T16:55:59;4.05;;;2.53;;
64225;SDS011;50545;56.064;26.178;2022-09-30T16:58:26;6.32;;;2.85;;
64225;SDS011;50545;56.064;26.178;2022-09-30T17:00:53;3.65;;;2.28;;
64225;SDS011;50545;56.064;26.178;2022-09-30T17:03:21;2.80;;;2.08;;
64225;SDS011;50545;56.064;26.178;2022-09-30T17:05:48;3.50;;;2.17;;
64225;SDS011;50545;56.064;26.178;2022-09-30T17:08:18;3.40;;;2.10;;
64225;SDS011;50545;56.064;26.178;2022-09-30T17:10:47;4.22;;;2.53;;
64225;SDS011;50545;56.064;26.178;2022-09-30T17:13:18;4.25;;;2.63;;
64225;SDS011;50545;56.064;26.178;2022-09-30T17:15:49;4.75;;;2.45;;
64225;SDS011;50545;56.064;26.178;2022-09-30T17:18:17;5.35;;;2.35;;
64225;SDS011;50545;56.064;26.178;2022-09-30T17:20:45;3.30;;;2.30;;
64225;SDS011;50545;56.064;26.178;2022-09-30T17:23:21;5.85;;;2.53;;
64225;SDS011;50545;56.064;26.178;2022-09-30T17:25:51;3.33;;;2.23;;
64225;SDS011;50545;56.064;26.178;2022-09-30T17:28:19;3.40;;;2.08;;
64225;SDS011;50545;56.064;26.178;2022-09-30T17:30:47;3.80;;;2.40;;
64225;SDS011;50545;56.064;26.178;2022-09-30T17:33:16;4.60;;;2.55;;
64225;SDS011;50545;56.064;26.178;2022-09-30T17:35:55;5.40;;;2.57;;
64225;SDS011;50545;56.064;26.178;2022-09-30T17:38:24;3.88;;;2.50;;
64225;SDS011;50545;56.064;26.178;2022-09-30T17:40:52;3.35;;;2.03;;
64225;SDS011;50545;56.064;26.178;2022-09-30T17:43:38;2.83;;;2.03;;
64225;SDS011;50545;56.064;26.178;2022-09-30T17:46:05;4.63;;;2.25;;
64225;SDS011;50545;56.064;26.178;2022-09-30T17:48:32;3.10;;;2.10;;
64225;SDS011;50545;56.064;26.178;2022-09-30T17:51:00;3.97;;;2.47;;
64225;SDS011;50545;56.064;26.178;2022-09-30T17:53:27;3.63;;;2.40;;
64225;SDS011;50545;56.064;26.178;2022-09-30T17:56:06;4.60;;;2.33;;
64225;SDS011;50545;56.064;26.178;2022-09-30T17:58:42;4.47;;;2.60;;
64225;SDS011;50545;56.064;26.178;2022-09-30T18:01:13;4.30;;;2.70;;
64225;SDS011;50545;56.064;26.178;2022-09-30T18:03:41;3.20;;;1.92;;
64225;SDS011;50545;56.064;26.178;2022-09-30T18:06:10;2.72;;;2.13;;
64225;SDS011;50545;56.064;26.178;2022-09-30T18:08:39;3.40;;;2.53;;
64225;SDS011;50545;56.064;26.178;2022-09-30T18:11:06;3.50;;;2.30;;
64225;SDS011;50545;56.064;26.178;2022-09-30T18:13:34;2.65;;;1.90;;
64225;SDS011;50545;56.064;26.178;2022-09-30T18:16:04;1.80;;;1.65;;
64225;SDS011;50545;56.064;26.178;2022-09-30T18:18:32;2.20;;;1.60;;
64225;SDS011;50545;56.064;26.178;2022-09-30T18:21:00;2.58;;;1.98;;
64225;SDS011;50545;56.064;26.178;2022-09-30T18:23:28;3.38;;;1.88;;
64225;SDS011;50545;56.064;26.178;2022-09-30T18:25:55;2.83;;;1.80;;
64225;SDS011;50545;56.064;26.178;2022-09-30T18:28:23;3.08;;;1.98;;
64225;SDS011;50545;56.064;26.178;2022-09-30T18:30:50;2.28;;;2.00;;
64225;SDS011;50545;56.064;26.178;2022-09-30T18:33:17;3.22;;;1.90;;
64225;SDS011;50545;56.064;26.178;2022-09-30T18:35:47;3.30;;;1.90;;
64225;SDS011;50545;56.064;26.178;2022-09-30T18:38:14;3.45;;;2.10;;
64225;SDS011;50545;56.064;26.178;2022-09-30T18:40:41;2.47;;;1.85;;
64225;SDS011;50545;56.064;26.178;2022-09-30T18:43:10;2.72;;;2.05;;
64225;SDS011;50545;56.064;26.178;2022-09-30T18:45:39;2.97;;;2.10;;
64225;SDS011;50545;56.064;26.178;2022-09-30T18:48:09;3.78;;;2.33;;
64225;SDS011;50545;56.064;26.178;2022-09-30T18:50:36;3.25;;;2.15;;
64225;SDS011;50545;56.064;26.178;2022-09-30T18:53:04;3.42;;;2.20;;